createdAt,value
2022-12-09T00:00:22.135Z,5.87
2022-12-09T00:02:50.462Z,6.50
2022-12-09T00:05:20.131Z,6.90
2022-12-09T00:07:48.260Z,6.73
2022-12-09T00:10:16.420Z,6.43
2022-12-09T00:12:44.607Z,6.43
2022-12-09T00:15:12.743Z,5.97
2022-12-09T00:17:40.633Z,5.63
2022-12-09T00:20:10.094Z,6.00
2022-12-09T00:22:39.849Z,4.57
2022-12-09T00:25:08.897Z,8.00
2022-12-09T00:27:37.262Z,5.23
2022-12-09T00:30:06.403Z,6.33
2022-12-09T00:32:34.691Z,5.30
2022-12-09T00:35:04.482Z,5.30
2022-12-09T00:37:32.841Z,8.43
2022-12-09T00:40:02.320Z,7.40
2022-12-09T00:42:30.209Z,5.90
2022-12-09T00:44:58.242Z,7.13
2022-12-09T00:47:26.521Z,6.10
2022-12-09T00:49:54.659Z,6.70
2022-12-09T00:52:22.590Z,7.37
2022-12-09T00:54:50.788Z,9.43
2022-12-09T00:57:20.283Z,9.40
2022-12-09T00:59:48.336Z,9.47
2022-12-09T01:02:16.324Z,9.30
2022-12-09T01:04:44.678Z,7.57
2022-12-09T01:07:12.977Z,6.53
2022-12-09T01:09:40.899Z,10.23
2022-12-09T01:12:08.919Z,8.93
2022-12-09T01:14:38.470Z,8.17
2022-12-09T01:17:06.547Z,10.40
2022-12-09T01:19:35.437Z,10.30
2022-12-09T01:22:03.484Z,8.67
2022-12-09T01:24:31.396Z,9.30
2022-12-09T01:26:59.702Z,9.90
2022-12-09T01:29:27.677Z,10.20
2022-12-09T01:31:57.396Z,10.60
2022-12-09T01:34:25.560Z,8.53
2022-12-09T01:36:53.919Z,7.93
2022-12-09T01:39:21.860Z,8.37
2022-12-09T01:41:51.409Z,8.27
2022-12-09T01:44:22.156Z,9.67
2022-12-09T01:46:50.942Z,10.97
2022-12-09T01:49:25.271Z,9.03
2022-12-09T01:52:02.212Z,8.97
2022-12-09T01:54:30.775Z,8.57
2022-12-09T01:56:59.160Z,8.97
2022-12-09T01:59:27.668Z,8.97
2022-12-09T02:01:59.234Z,9.40
2022-12-09T02:04:30.995Z,9.80
2022-12-09T02:07:02.090Z,7.60
2022-12-09T02:09:30.577Z,9.33
2022-12-09T02:12:07.332Z,11.53
2022-12-09T02:14:40.860Z,9.80
2022-12-09T02:17:22.787Z,9.47
2022-12-09T02:20:02.649Z,8.77
2022-12-09T02:22:34.633Z,10.07
2022-12-09T02:25:12.016Z,9.83
2022-12-09T02:27:46.685Z,10.57
2022-12-09T02:30:17.106Z,9.70
2022-12-09T02:32:59.482Z,10.53
2022-12-09T02:35:33.714Z,7.87
2022-12-09T02:38:06.151Z,8.30
2022-12-09T02:40:37.406Z,9.53
2022-12-09T02:43:07.900Z,7.20
2022-12-09T02:45:37.092Z,8.90
2022-12-09T02:48:06.292Z,8.13
2022-12-09T02:50:38.122Z,9.53
2022-12-09T02:53:09.893Z,8.23
2022-12-09T02:55:38.516Z,8.90
2022-12-09T02:58:06.533Z,8.40
2022-12-09T03:00:34.971Z,7.70
2022-12-09T03:03:04.752Z,8.97
2022-12-09T03:05:41.360Z,9.10
2022-12-09T03:08:17.591Z,7.93
2022-12-09T03:10:54.206Z,8.83
2022-12-09T03:13:32.754Z,7.53
2022-12-09T03:16:06.005Z,8.23
2022-12-09T03:18:35.084Z,8.30
2022-12-09T03:21:05.536Z,8.23
2022-12-09T03:23:34.953Z,8.10
2022-12-09T03:26:03.649Z,7.20
2022-12-09T03:28:33.625Z,9.40
2022-12-09T03:31:04.418Z,8.17
2022-12-09T03:33:32.863Z,8.83
2022-12-09T03:36:03.488Z,8.30
2022-12-09T03:38:37.262Z,8.77
2022-12-09T03:41:09.251Z,8.00
2022-12-09T03:43:40.002Z,6.70
2022-12-09T03:46:08.246Z,7.67
2022-12-09T03:48:36.434Z,6.97
2022-12-09T03:51:08.677Z,8.23
2022-12-09T03:53:43.037Z,8.43
2022-12-09T03:56:15.901Z,7.73
2022-12-09T03:58:45.211Z,7.67
2022-12-09T04:01:13.760Z,7.93
2022-12-09T04:03:45.457Z,8.10
2022-12-09T04:06:14.191Z,7.90
2022-12-09T04:08:44.931Z,7.43
2022-12-09T04:11:13.103Z,7.20
2022-12-09T04:13:41.264Z,7.73
2022-12-09T04:16:10.134Z,7.80
2022-12-09T04:18:38.652Z,7.50
2022-12-09T04:21:08.586Z,7.50
2022-12-09T04:23:42.532Z,7.43
2022-12-09T04:26:15.024Z,8.47
2022-12-09T04:28:43.284Z,8.23
2022-12-09T04:31:12.843Z,9.17
2022-12-09T04:33:41.775Z,8.90
2022-12-09T04:36:13.072Z,8.43
2022-12-09T04:38:41.566Z,8.40
2022-12-09T04:41:09.963Z,9.20
2022-12-09T04:43:39.692Z,6.80
2022-12-09T04:46:09.112Z,9.67
2022-12-09T04:48:38.005Z,7.87
2022-12-09T04:51:06.487Z,7.17
2022-12-09T04:53:34.419Z,8.77
2022-12-09T04:56:02.944Z,8.93
2022-12-09T04:58:31.201Z,9.67
2022-12-09T05:01:01.147Z,8.97
2022-12-09T05:03:29.494Z,8.83
2022-12-09T05:05:57.898Z,9.47
2022-12-09T05:08:31.224Z,10.03
2022-12-09T05:11:00.264Z,9.30
2022-12-09T05:13:28.603Z,9.50
2022-12-09T05:16:02.498Z,10.23
2022-12-09T05:18:30.979Z,9.60
2022-12-09T05:20:59.558Z,9.50
2022-12-09T05:23:27.711Z,10.47
2022-12-09T05:25:56.616Z,9.20
2022-12-09T05:28:24.766Z,9.30
2022-12-09T05:30:52.815Z,10.27
2022-12-09T05:33:22.942Z,9.17
2022-12-09T05:35:53.466Z,10.40
2022-12-09T05:38:21.885Z,9.60
2022-12-09T05:40:49.891Z,9.30
2022-12-09T05:43:17.840Z,8.57
2022-12-09T05:45:46.096Z,9.40
2022-12-09T05:48:14.093Z,8.80
2022-12-09T05:50:43.916Z,9.43
2022-12-09T05:53:12.268Z,8.50
2022-12-09T05:55:41.385Z,9.07
2022-12-09T05:58:10.322Z,8.33
2022-12-09T06:00:38.279Z,7.70
2022-12-09T06:03:06.373Z,10.17
2022-12-09T06:05:35.313Z,9.57
2022-12-09T06:08:07.044Z,9.33
2022-12-09T06:10:36.434Z,8.40
2022-12-09T06:13:04.873Z,8.30
2022-12-09T06:15:34.476Z,8.27
2022-12-09T06:18:02.997Z,8.23
2022-12-09T06:20:31.358Z,7.57
2022-12-09T06:22:59.506Z,8.47
2022-12-09T06:25:29.097Z,7.90
2022-12-09T06:27:57.373Z,8.13
2022-12-09T06:30:25.412Z,8.27
2022-12-09T06:32:53.867Z,8.80
2022-12-09T06:35:22.272Z,7.00
2022-12-09T06:37:52.854Z,7.73
2022-12-09T06:40:22.701Z,7.77
2022-12-09T06:42:53.129Z,6.90
2022-12-09T06:45:21.870Z,7.03
2022-12-09T06:47:50.134Z,7.53
2022-12-09T06:50:18.425Z,7.30
2022-12-09T06:52:46.670Z,7.07
2022-12-09T06:55:15.411Z,7.57
2022-12-09T06:57:43.846Z,6.67
2022-12-09T07:00:15.294Z,6.60
2022-12-09T07:02:43.696Z,6.53
2022-12-09T07:05:12.860Z,7.30
2022-12-09T07:07:41.602Z,6.73
2022-12-09T07:10:11.332Z,7.50
2022-12-09T07:12:39.572Z,6.90
2022-12-09T07:15:09.021Z,6.83
2022-12-09T07:17:39.156Z,5.93
2022-12-09T07:20:08.611Z,5.90
2022-12-09T07:22:37.249Z,6.87
2022-12-09T07:25:06.309Z,6.53
2022-12-09T07:27:34.997Z,8.13
2022-12-09T07:30:03.335Z,6.90
2022-12-09T07:32:31.608Z,8.63
2022-12-09T07:35:01.409Z,7.47
2022-12-09T07:37:29.710Z,6.33
2022-12-09T07:39:57.775Z,8.10
2022-12-09T07:42:25.775Z,7.13
2022-12-09T07:44:54.073Z,7.97
2022-12-09T07:47:22.287Z,7.73
2022-12-09T07:49:50.736Z,9.60
2022-12-09T07:52:20.446Z,8.00
2022-12-09T07:54:48.431Z,9.13
2022-12-09T07:57:16.634Z,6.93
2022-12-09T07:59:44.685Z,7.90
2022-12-09T08:02:13.018Z,7.93
2022-12-09T08:04:41.440Z,6.47
2022-12-09T08:07:10.048Z,7.60
2022-12-09T08:09:40.499Z,8.03
2022-12-09T08:12:08.703Z,8.53
2022-12-09T08:14:37.348Z,7.40
2022-12-09T08:17:05.468Z,8.80
2022-12-09T08:19:34.055Z,7.60
2022-12-09T08:22:02.338Z,7.30
2022-12-09T08:24:30.767Z,7.60
2022-12-09T08:27:00.297Z,9.03
2022-12-09T08:29:28.561Z,8.90
2022-12-09T08:31:56.837Z,8.00
2022-12-09T08:34:24.986Z,7.87
2022-12-09T08:36:58.713Z,9.57
2022-12-09T08:39:29.696Z,9.17
2022-12-09T08:41:59.460Z,8.77
2022-12-09T08:44:27.858Z,8.90
2022-12-09T08:46:56.103Z,8.90
2022-12-09T08:49:25.099Z,8.73
2022-12-09T08:51:54.541Z,9.20
2022-12-09T08:54:23.181Z,11.43
2022-12-09T08:56:53.669Z,10.40
2022-12-09T08:59:23.178Z,10.10
2022-12-09T09:01:51.781Z,9.67
2022-12-09T09:04:21.648Z,8.47
2022-12-09T09:06:51.610Z,8.67
2022-12-09T09:09:21.342Z,9.20
2022-12-09T09:11:49.698Z,7.37
2022-12-09T09:14:18.295Z,8.13
2022-12-09T09:16:48.172Z,8.77
2022-12-09T09:19:18.736Z,7.60
2022-12-09T09:21:47.186Z,7.60
2022-12-09T09:24:18.237Z,8.13
2022-12-09T09:26:46.991Z,7.90
2022-12-09T09:29:16.013Z,7.20
2022-12-09T09:31:44.880Z,7.20
2022-12-09T09:34:14.478Z,9.00
2022-12-09T09:36:42.922Z,8.17
2022-12-09T09:39:11.183Z,8.80
2022-12-09T09:41:46.620Z,8.67
2022-12-09T09:44:20.661Z,8.83
2022-12-09T09:46:50.827Z,8.43
2022-12-09T09:49:27.987Z,8.23
2022-12-09T09:51:56.367Z,7.87
2022-12-09T09:54:24.398Z,9.20
2022-12-09T09:56:57.314Z,8.43
2022-12-09T09:59:34.292Z,8.47
2022-12-09T10:02:14.831Z,8.77
2022-12-09T10:04:52.719Z,8.30
2022-12-09T10:07:25.004Z,8.23
2022-12-09T10:09:59.848Z,8.03
2022-12-09T10:12:35.722Z,8.20
2022-12-09T10:15:11.498Z,8.40
2022-12-09T10:17:46.168Z,8.50
2022-12-09T10:20:18.915Z,9.20
2022-12-09T10:22:51.439Z,8.03
2022-12-09T10:25:24.004Z,7.57
2022-12-09T10:27:56.110Z,9.00
2022-12-09T10:30:25.598Z,8.13
2022-12-09T10:32:55.535Z,8.90
2022-12-09T10:35:27.685Z,8.10
2022-12-09T10:37:57.711Z,7.77
2022-12-09T10:40:29.658Z,8.83
2022-12-09T10:43:16.835Z,8.17
2022-12-09T10:46:16.683Z,7.67
2022-12-09T10:48:37.593Z,9.13
2022-12-09T10:51:12.483Z,9.60
2022-12-09T10:53:46.723Z,9.17
2022-12-09T10:56:20.158Z,7.10
2022-12-09T10:58:48.733Z,8.60
2022-12-09T11:01:17.497Z,8.27
2022-12-09T11:03:50.794Z,8.97
2022-12-09T11:06:28.553Z,8.80
2022-12-09T11:08:59.031Z,8.90
2022-12-09T11:11:41.422Z,7.73
2022-12-09T11:14:23.103Z,8.37
2022-12-09T11:16:53.092Z,7.87
2022-12-09T11:19:31.050Z,7.77
2022-12-09T11:22:29.293Z,8.13
2022-12-09T11:25:22.801Z,7.97
2022-12-09T11:27:54.000Z,8.27
2022-12-09T11:30:25.403Z,8.53
2022-12-09T11:33:08.126Z,8.17
2022-12-09T11:35:53.184Z,8.07
2022-12-09T11:38:32.708Z,7.97
2022-12-09T11:41:04.597Z,7.90
2022-12-09T11:43:40.835Z,7.43
2022-12-09T11:46:21.518Z,10.13
2022-12-09T11:48:53.477Z,8.53
2022-12-09T11:51:27.799Z,7.33
2022-12-09T11:54:03.373Z,7.70
2022-12-09T11:56:31.910Z,7.73
2022-12-09T11:59:02.889Z,7.97
2022-12-09T12:01:43.637Z,7.67
2022-12-09T12:04:13.810Z,7.93
2022-12-09T12:06:45.816Z,8.33
2022-12-09T12:09:20.500Z,9.30
2022-12-09T12:11:53.786Z,8.73
2022-12-09T12:14:26.052Z,8.20
2022-12-09T12:16:59.762Z,9.40
2022-12-09T12:19:32.217Z,8.43
2022-12-09T12:22:33.882Z,7.97
2022-12-09T12:25:17.729Z,8.10
2022-12-09T12:27:56.807Z,8.47
2022-12-09T12:30:28.075Z,8.73
2022-12-09T12:35:58.874Z,8.00
2022-12-09T12:38:37.733Z,8.67
2022-12-09T12:41:11.823Z,8.77
2022-12-09T12:44:12.063Z,8.20
2022-12-09T12:46:49.126Z,8.00
2022-12-09T12:49:28.984Z,7.83
2022-12-09T12:52:01.553Z,8.40
2022-12-09T12:54:37.576Z,9.00
2022-12-09T12:57:12.477Z,7.57
2022-12-09T12:59:46.660Z,7.23
2022-12-09T13:02:24.607Z,8.73
2022-12-09T13:04:56.703Z,8.27
2022-12-09T13:07:30.492Z,7.60
2022-12-09T13:10:03.359Z,7.10
2022-12-09T13:12:51.879Z,8.00
2022-12-09T13:15:22.330Z,7.87
2022-12-09T13:17:50.929Z,8.40
2022-12-09T13:20:22.493Z,8.37
2022-12-09T13:22:55.079Z,8.10
2022-12-09T13:25:27.249Z,8.90
2022-12-09T13:28:01.295Z,6.97
2022-12-09T13:30:39.980Z,7.93
2022-12-09T13:33:23.430Z,7.60
2022-12-09T13:35:56.468Z,7.83
2022-12-09T13:38:36.881Z,8.13
2022-12-09T13:41:56.376Z,8.60
2022-12-09T13:44:32.458Z,7.17
2022-12-09T13:47:26.597Z,7.70
2022-12-09T13:49:58.152Z,6.80
2022-12-09T13:52:45.064Z,7.50
2022-12-09T13:55:30.042Z,7.93
2022-12-09T13:58:05.930Z,8.53
2022-12-09T14:00:35.542Z,9.40
2022-12-09T14:03:24.924Z,8.70
2022-12-09T14:05:54.037Z,8.83
2022-12-09T14:08:24.402Z,7.80
2022-12-09T14:10:53.159Z,7.87
2022-12-09T14:13:27.768Z,7.57
2022-12-09T14:16:35.059Z,8.90
2022-12-09T14:19:49.982Z,7.10
2022-12-09T14:22:38.994Z,9.17
2022-12-09T14:25:50.944Z,8.33
2022-12-09T14:28:35.880Z,11.77
2022-12-09T14:31:08.709Z,8.73
2022-12-09T14:33:37.691Z,12.23
2022-12-09T14:36:09.764Z,11.13
2022-12-09T14:39:07.791Z,10.93
2022-12-09T14:41:36.287Z,10.17
2022-12-09T14:44:13.713Z,12.93
2022-12-09T14:46:42.969Z,10.50
2022-12-09T14:49:14.954Z,11.23
2022-12-09T14:51:47.981Z,9.20
2022-12-09T14:54:18.596Z,8.03
2022-12-09T14:56:48.303Z,8.67
2022-12-09T14:59:19.695Z,13.43
2022-12-09T15:01:53.181Z,11.87
2022-12-09T15:04:26.843Z,8.83
2022-12-09T15:07:14.841Z,8.63
2022-12-09T15:09:54.005Z,8.43
2022-12-09T15:12:24.686Z,8.80
2022-12-09T15:14:58.002Z,7.50
2022-12-09T15:17:28.266Z,8.23
2022-12-09T15:20:01.062Z,8.73
2022-12-09T15:22:31.956Z,7.37
2022-12-09T15:25:00.053Z,8.00
2022-12-09T15:27:28.473Z,7.33
2022-12-09T15:29:56.458Z,7.50
2022-12-09T15:32:26.852Z,7.07
2022-12-09T15:34:55.495Z,7.87
2022-12-09T15:37:27.191Z,6.63
2022-12-09T15:40:01.308Z,6.40
2022-12-09T15:42:30.908Z,7.80
2022-12-09T15:45:04.840Z,7.40
2022-12-09T15:47:38.891Z,7.10
2022-12-09T15:50:15.344Z,6.20
2022-12-09T15:52:47.261Z,6.90
2022-12-09T15:55:18.867Z,8.50
2022-12-09T15:57:47.917Z,7.73
2022-12-09T16:00:16.436Z,6.87
2022-12-09T16:02:46.424Z,6.73
2022-12-09T16:05:14.409Z,6.97
2022-12-09T16:07:53.513Z,7.87
2022-12-09T16:10:26.713Z,7.90
2022-12-09T16:13:11.803Z,8.23
2022-12-09T16:15:45.925Z,6.57
2022-12-09T16:18:17.736Z,7.47
2022-12-09T16:20:46.380Z,7.20
2022-12-09T16:23:21.275Z,6.87
2022-12-09T16:25:51.296Z,7.73
2022-12-09T16:28:22.508Z,8.07
2022-12-09T16:30:51.614Z,7.43
2022-12-09T16:33:20.796Z,7.47
2022-12-09T16:35:58.937Z,7.53
2022-12-09T16:38:26.879Z,6.60
2022-12-09T16:41:01.629Z,7.20
2022-12-09T16:43:30.570Z,6.43
2022-12-09T16:45:59.644Z,6.60
2022-12-09T16:48:28.869Z,7.30
2022-12-09T16:50:58.793Z,6.70
2022-12-09T16:53:29.085Z,10.97
2022-12-09T16:56:00.651Z,12.50
2022-12-09T16:58:29.444Z,8.10
2022-12-09T17:00:57.659Z,9.10
2022-12-09T17:03:33.415Z,7.43
2022-12-09T17:06:01.429Z,8.23
2022-12-09T17:08:29.380Z,7.07
2022-12-09T17:10:57.341Z,7.43
2022-12-09T17:13:26.597Z,7.77
2022-12-09T17:15:58.437Z,7.77
2022-12-09T17:18:26.797Z,11.37
2022-12-09T17:21:01.074Z,16.37
2022-12-09T17:23:29.045Z,10.97
2022-12-09T17:25:58.045Z,12.60
2022-12-09T17:28:30.114Z,8.97
2022-12-09T17:30:58.263Z,10.30
2022-12-09T17:33:26.971Z,9.47
2022-12-09T17:35:55.029Z,10.70
2022-12-09T17:38:23.340Z,8.97
2022-12-09T17:40:51.420Z,9.80
2022-12-09T17:43:19.312Z,10.40
2022-12-09T17:45:48.674Z,11.93
2022-12-09T17:48:16.597Z,11.17
2022-12-09T17:50:44.545Z,10.33
2022-12-09T17:53:12.540Z,12.10
2022-12-09T17:55:40.533Z,13.20
2022-12-09T17:58:08.434Z,18.63
2022-12-09T18:00:36.339Z,12.53
2022-12-09T18:03:05.707Z,12.23
2022-12-09T18:05:33.676Z,10.80
2022-12-09T18:08:01.595Z,17.27
2022-12-09T18:10:29.565Z,14.77
2022-12-09T18:12:57.451Z,16.30
2022-12-09T18:15:27.284Z,17.00
2022-12-09T18:17:55.245Z,16.67
2022-12-09T18:20:24.634Z,13.73
2022-12-09T18:22:52.728Z,18.63
2022-12-09T18:25:20.660Z,20.67
2022-12-09T18:27:48.621Z,24.90
2022-12-09T18:30:16.929Z,19.77
2022-12-09T18:32:44.878Z,12.33
2022-12-09T18:35:12.872Z,13.17
2022-12-09T18:37:42.197Z,13.33
2022-12-09T18:40:11.409Z,12.77
2022-12-09T18:42:39.284Z,14.00
2022-12-09T18:45:08.071Z,13.13
2022-12-09T18:47:36.372Z,11.73
2022-12-09T18:50:04.605Z,13.30
2022-12-09T18:52:32.654Z,13.97
2022-12-09T18:55:01.993Z,11.00
2022-12-09T18:57:31.017Z,12.80
2022-12-09T18:59:59.047Z,13.23
2022-12-09T19:02:27.054Z,11.17
2022-12-09T19:04:55.208Z,13.03
2022-12-09T19:07:26.497Z,11.67
2022-12-09T19:09:57.205Z,13.47
2022-12-09T19:15:14.695Z,13.20
2022-12-09T19:17:43.182Z,13.80
2022-12-09T19:20:12.110Z,13.10
2022-12-09T19:22:40.198Z,10.50
2022-12-09T19:25:08.587Z,10.40
2022-12-09T19:27:37.877Z,12.03
2022-12-09T19:30:06.854Z,13.07
2022-12-09T19:32:53.057Z,10.90
2022-12-09T19:35:21.779Z,13.07
2022-12-09T19:37:49.677Z,11.43
2022-12-09T19:40:18.721Z,13.07
2022-12-09T19:42:47.997Z,11.20
2022-12-09T19:45:16.022Z,12.20
2022-12-09T19:47:43.902Z,11.53
2022-12-09T19:50:11.788Z,10.63
2022-12-09T19:52:39.698Z,13.23
2022-12-09T19:55:08.841Z,12.50
2022-12-09T19:57:36.782Z,12.70
2022-12-09T20:00:07.306Z,11.40
2022-12-09T20:02:36.364Z,11.70
2022-12-09T20:05:05.411Z,11.57
2022-12-09T20:07:33.288Z,11.83
2022-12-09T20:10:01.165Z,13.30
2022-12-09T20:12:29.087Z,13.37
2022-12-09T20:14:57.001Z,12.03
2022-12-09T20:17:26.328Z,12.13
2022-12-09T20:19:54.221Z,12.83
2022-12-09T20:22:22.104Z,10.70
2022-12-09T20:24:49.996Z,12.03
2022-12-09T20:27:19.917Z,11.83
2022-12-09T20:29:48.062Z,11.80
2022-12-09T20:32:15.989Z,12.63
2022-12-09T20:34:45.303Z,11.93
2022-12-09T20:37:13.367Z,13.27
2022-12-09T20:39:41.310Z,12.77
2022-12-09T20:42:09.209Z,12.40
2022-12-09T20:44:37.117Z,12.00
2022-12-09T20:47:05.149Z,17.17
2022-12-09T20:49:33.048Z,13.30
2022-12-09T20:52:02.324Z,13.00
2022-12-09T20:54:30.265Z,11.43
2022-12-09T20:56:58.157Z,12.10
2022-12-09T20:59:26.102Z,13.47
2022-12-09T21:01:55.855Z,13.63
2022-12-09T21:04:23.903Z,11.37
2022-12-09T21:06:51.845Z,10.97
2022-12-09T21:09:22.947Z,12.00
2022-12-09T21:11:51.406Z,10.73
2022-12-09T21:14:19.414Z,9.00
2022-12-09T21:16:50.301Z,10.63
2022-12-09T21:19:25.253Z,10.57
2022-12-09T21:21:53.634Z,10.70
2022-12-09T21:24:24.702Z,10.70
2022-12-09T21:26:55.319Z,10.87
2022-12-09T21:29:29.819Z,10.20
2022-12-09T21:31:59.488Z,9.57
2022-12-09T21:34:27.430Z,9.50
2022-12-09T21:36:55.673Z,9.93
2022-12-09T21:39:25.061Z,11.50
2022-12-09T21:41:53.495Z,11.23
2022-12-09T21:44:22.417Z,12.90
2022-12-09T21:46:50.343Z,11.10
2022-12-09T21:49:18.245Z,9.57
2022-12-09T21:51:46.177Z,10.03
2022-12-09T21:54:14.180Z,11.10
2022-12-09T21:56:43.481Z,10.37
2022-12-09T21:59:12.202Z,9.67
2022-12-09T22:01:42.690Z,9.83
2022-12-09T22:04:12.703Z,9.20
2022-12-09T22:06:40.778Z,12.20
2022-12-09T22:09:09.593Z,10.40
2022-12-09T22:11:39.321Z,9.63
2022-12-09T22:14:10.540Z,9.37
2022-12-09T22:16:40.981Z,11.83
2022-12-09T22:19:10.129Z,10.97
2022-12-09T22:21:38.293Z,10.27
2022-12-09T22:24:08.052Z,11.40
2022-12-09T22:26:36.107Z,10.00
2022-12-09T22:29:05.873Z,9.77
2022-12-09T22:31:36.486Z,9.37
2022-12-09T22:34:05.910Z,10.47
2022-12-09T22:36:34.713Z,11.73
2022-12-09T22:39:02.609Z,10.40
2022-12-09T22:41:31.141Z,10.80
2022-12-09T22:43:59.285Z,11.60
2022-12-09T22:46:28.857Z,10.70
2022-12-09T22:48:59.041Z,10.47
2022-12-09T22:51:29.020Z,10.87
2022-12-09T22:53:57.790Z,9.67
2022-12-09T22:56:26.716Z,10.07
2022-12-09T22:58:55.083Z,12.60
2022-12-09T23:01:24.410Z,9.97
2022-12-09T23:03:52.530Z,11.40
2022-12-09T23:06:21.805Z,9.17
2022-12-09T23:08:50.196Z,11.70
2022-12-09T23:11:19.684Z,10.87
2022-12-09T23:13:47.573Z,9.67
2022-12-09T23:16:17.591Z,10.90
2022-12-09T23:18:45.763Z,11.37
2022-12-09T23:21:15.735Z,9.50
2022-12-09T23:23:45.377Z,9.90
2022-12-09T23:26:14.607Z,11.23
2022-12-09T23:28:43.928Z,11.17
2022-12-09T23:31:13.382Z,9.73
2022-12-09T23:33:43.020Z,10.00
2022-12-09T23:36:13.275Z,12.20
2022-12-09T23:38:42.056Z,12.53
2022-12-09T23:41:12.543Z,10.87
2022-12-09T23:43:40.472Z,10.03
2022-12-09T23:46:15.166Z,10.13
2022-12-09T23:48:43.766Z,10.93
2022-12-09T23:51:12.624Z,10.37
2022-12-09T23:53:41.367Z,10.70
2022-12-09T23:56:13.331Z,11.17
2022-12-09T23:58:41.503Z,11.43
